KTSP/TSP METAR and TAF weather

Enter ICAO airport designator
Station Type Date Time Source
KTSP METAR 2021/04/18 02:15 UTC NOAA

KTSP 180215Z AUTO 06005G11KT 10SM BKN075 OVC090 16/M03 A3007 RMK AO2


Station Type Date Time Source
KTSP Decoded METAR 2021/04/18 02:15 UTC NOAA

Station name not available
Apr 17, 2021 - 10:15 PM EDT / 2021.04.18 0215 UTC
Wind: from the ENE (060 degrees) at 6 MPH (5 KT) gusting to 13 MPH (11 KT):0
Visibility: 10 mile(s):0
Sky conditions: overcast
Temperature: 60 F (16 C)
Dew Point: 26 F (-3 C)
Relative Humidity: 26%
Pressure (altimeter): 30.07 in. Hg (1018 hPa)
ob: KTSP 180215Z AUTO 06005G11KT 10SM BKN075 OVC090 16/M03 A3007 RMK AO2
cycle: 2

Station Type Date Time Source
KTSP TAF UTC NOAA

Error!

Example: see airport list